sensor_id;sensor_type;location;lat;lon;timestamp;P1;durP1;ratioP1;P2;durP2;ratioP2
70010;SDS011;59543;37.950;-122.338;2023-09-12T00:00:17;20.23;;;3.33;;
70010;SDS011;59543;37.950;-122.338;2023-09-12T00:02:43;15.77;;;3.63;;
70010;SDS011;59543;37.950;-122.338;2023-09-12T00:05:09;15.27;;;3.88;;
70010;SDS011;59543;37.950;-122.338;2023-09-12T00:07:37;16.92;;;3.92;;
70010;SDS011;59543;37.950;-122.338;2023-09-12T00:10:05;18.48;;;3.88;;
70010;SDS011;59543;37.950;-122.338;2023-09-12T00:12:31;14.50;;;4.00;;
70010;SDS011;59543;37.950;-122.338;2023-09-12T00:14:57;13.93;;;3.78;;
70010;SDS011;59543;37.950;-122.338;2023-09-12T00:17:24;17.70;;;3.63;;
70010;SDS011;59543;37.950;-122.338;2023-09-12T00:19:52;15.68;;;3.83;;
70010;SDS011;59543;37.950;-122.338;2023-09-12T00:22:18;17.50;;;3.88;;
70010;SDS011;59543;37.950;-122.338;2023-09-12T00:24:44;13.35;;;3.05;;
70010;SDS011;59543;37.950;-122.338;2023-09-12T00:27:10;17.17;;;4.00;;
70010;SDS011;59543;37.950;-122.338;2023-09-12T00:29:37;20.83;;;4.50;;
70010;SDS011;59543;37.950;-122.338;2023-09-12T00:32:03;18.25;;;4.40;;
70010;SDS011;59543;37.950;-122.338;2023-09-12T00:34:30;12.05;;;3.75;;
70010;SDS011;59543;37.950;-122.338;2023-09-12T00:36:56;28.20;;;4.10;;
70010;SDS011;59543;37.950;-122.338;2023-09-12T00:39:22;19.27;;;4.05;;
70010;SDS011;59543;37.950;-122.338;2023-09-12T00:41:48;15.48;;;3.80;;
70010;SDS011;59543;37.950;-122.338;2023-09-12T00:44:15;16.98;;;3.25;;
70010;SDS011;59543;37.950;-122.338;2023-09-12T00:46:44;15.98;;;4.20;;
70010;SDS011;59543;37.950;-122.338;2023-09-12T00:49:11;18.80;;;4.03;;
70010;SDS011;59543;37.950;-122.338;2023-09-12T00:51:39;19.23;;;4.30;;
70010;SDS011;59543;37.950;-122.338;2023-09-12T00:54:07;16.67;;;3.42;;
70010;SDS011;59543;37.950;-122.338;2023-09-12T00:56:34;15.60;;;3.83;;
70010;SDS011;59543;37.950;-122.338;2023-09-12T00:59:01;15.23;;;4.20;;
70010;SDS011;59543;37.950;-122.338;2023-09-12T01:01:28;16.50;;;4.25;;
70010;SDS011;59543;37.950;-122.338;2023-09-12T01:03:55;14.60;;;3.92;;
70010;SDS011;59543;37.950;-122.338;2023-09-12T01:06:21;22.42;;;4.07;;
70010;SDS011;59543;37.950;-122.338;2023-09-12T01:08:51;19.08;;;4.22;;
70010;SDS011;59543;37.950;-122.338;2023-09-12T01:11:18;18.85;;;4.30;;
70010;SDS011;59543;37.950;-122.338;2023-09-12T01:13:46;19.27;;;4.38;;
70010;SDS011;59543;37.950;-122.338;2023-09-12T01:16:13;18.55;;;4.82;;
70010;SDS011;59543;37.950;-122.338;2023-09-12T01:18:39;21.65;;;4.65;;
70010;SDS011;59543;37.950;-122.338;2023-09-12T01:29:27;27.83;;;6.03;;
70010;SDS011;59543;37.950;-122.338;2023-09-12T01:31:54;25.02;;;5.93;;
70010;SDS011;59543;37.950;-122.338;2023-09-12T01:34:21;32.00;;;5.20;;
70010;SDS011;59543;37.950;-122.338;2023-09-12T01:36:48;22.90;;;5.18;;
70010;SDS011;59543;37.950;-122.338;2023-09-12T01:39:14;17.10;;;4.57;;
70010;SDS011;59543;37.950;-122.338;2023-09-12T01:41:40;18.85;;;4.40;;
70010;SDS011;59543;37.950;-122.338;2023-09-12T01:44:11;23.15;;;5.22;;
70010;SDS011;59543;37.950;-122.338;2023-09-12T01:46:39;21.52;;;5.10;;
70010;SDS011;59543;37.950;-122.338;2023-09-12T01:49:07;24.08;;;6.00;;
70010;SDS011;59543;37.950;-122.338;2023-09-12T01:51:35;25.83;;;5.35;;
70010;SDS011;59543;37.950;-122.338;2023-09-12T01:54:03;23.50;;;5.28;;
70010;SDS011;59543;37.950;-122.338;2023-09-12T01:56:29;20.67;;;4.72;;
70010;SDS011;59543;37.950;-122.338;2023-09-12T01:58:57;25.45;;;5.75;;
70010;SDS011;59543;37.950;-122.338;2023-09-12T02:01:24;19.38;;;4.20;;
70010;SDS011;59543;37.950;-122.338;2023-09-12T02:03:52;23.20;;;4.97;;
70010;SDS011;59543;37.950;-122.338;2023-09-12T02:06:18;17.95;;;4.50;;
70010;SDS011;59543;37.950;-122.338;2023-09-12T02:08:45;19.92;;;5.07;;
70010;SDS011;59543;37.950;-122.338;2023-09-12T02:11:11;22.80;;;5.43;;
70010;SDS011;59543;37.950;-122.338;2023-09-12T02:13:37;23.45;;;5.78;;
70010;SDS011;59543;37.950;-122.338;2023-09-12T02:16:03;23.48;;;5.70;;
70010;SDS011;59543;37.950;-122.338;2023-09-12T02:18:30;20.92;;;5.35;;
70010;SDS011;59543;37.950;-122.338;2023-09-12T02:20:57;21.42;;;5.07;;
70010;SDS011;59543;37.950;-122.338;2023-09-12T02:23:24;16.85;;;4.68;;
70010;SDS011;59543;37.950;-122.338;2023-09-12T02:25:50;21.00;;;5.65;;
70010;SDS011;59543;37.950;-122.338;2023-09-12T02:28:16;21.40;;;5.47;;
70010;SDS011;59543;37.950;-122.338;2023-09-12T02:30:43;21.85;;;5.38;;
70010;SDS011;59543;37.950;-122.338;2023-09-12T02:33:09;23.58;;;5.47;;
70010;SDS011;59543;37.950;-122.338;2023-09-12T02:35:35;19.75;;;5.05;;
70010;SDS011;59543;37.950;-122.338;2023-09-12T02:38:02;23.17;;;5.65;;
70010;SDS011;59543;37.950;-122.338;2023-09-12T02:40:28;20.48;;;5.45;;
70010;SDS011;59543;37.950;-122.338;2023-09-12T02:42:54;23.58;;;5.45;;
70010;SDS011;59543;37.950;-122.338;2023-09-12T02:45:20;22.27;;;5.18;;
70010;SDS011;59543;37.950;-122.338;2023-09-12T02:47:47;25.33;;;5.70;;
70010;SDS011;59543;37.950;-122.338;2023-09-12T02:50:13;25.25;;;5.72;;
70010;SDS011;59543;37.950;-122.338;2023-09-12T02:52:39;23.90;;;5.47;;
70010;SDS011;59543;37.950;-122.338;2023-09-12T02:55:05;17.92;;;5.28;;
70010;SDS011;59543;37.950;-122.338;2023-09-12T02:57:32;17.80;;;4.82;;
70010;SDS011;59543;37.950;-122.338;2023-09-12T02:59:58;20.45;;;4.65;;
70010;SDS011;59543;37.950;-122.338;2023-09-12T03:02:25;27.13;;;5.95;;
70010;SDS011;59543;37.950;-122.338;2023-09-12T03:04:53;24.95;;;5.57;;
70010;SDS011;59543;37.950;-122.338;2023-09-12T03:07:20;23.67;;;5.25;;
70010;SDS011;59543;37.950;-122.338;2023-09-12T03:09:49;17.55;;;5.07;;
70010;SDS011;59543;37.950;-122.338;2023-09-12T03:12:15;20.83;;;5.10;;
70010;SDS011;59543;37.950;-122.338;2023-09-12T03:14:42;20.98;;;5.68;;
70010;SDS011;59543;37.950;-122.338;2023-09-12T03:17:08;16.95;;;5.75;;
70010;SDS011;59543;37.950;-122.338;2023-09-12T03:19:34;18.52;;;4.95;;
70010;SDS011;59543;37.950;-122.338;2023-09-12T03:22:01;19.60;;;5.38;;
70010;SDS011;59543;37.950;-122.338;2023-09-12T03:24:27;18.10;;;4.82;;
70010;SDS011;59543;37.950;-122.338;2023-09-12T03:26:54;17.27;;;4.82;;
70010;SDS011;59543;37.950;-122.338;2023-09-12T03:29:21;16.75;;;4.00;;
70010;SDS011;59543;37.950;-122.338;2023-09-12T03:31:50;22.73;;;5.18;;
70010;SDS011;59543;37.950;-122.338;2023-09-12T03:34:17;15.77;;;4.90;;
70010;SDS011;59543;37.950;-122.338;2023-09-12T03:36:43;17.88;;;4.32;;
70010;SDS011;59543;37.950;-122.338;2023-09-12T03:39:09;16.50;;;4.10;;
70010;SDS011;59543;37.950;-122.338;2023-09-12T03:41:38;15.57;;;3.95;;
70010;SDS011;59543;37.950;-122.338;2023-09-12T03:44:05;17.40;;;4.47;;
70010;SDS011;59543;37.950;-122.338;2023-09-12T03:46:32;15.40;;;4.57;;
70010;SDS011;59543;37.950;-122.338;2023-09-12T03:48:58;21.55;;;4.82;;
70010;SDS011;59543;37.950;-122.338;2023-09-12T03:51:24;17.67;;;4.47;;
70010;SDS011;59543;37.950;-122.338;2023-09-12T03:53:50;18.35;;;4.68;;
70010;SDS011;59543;37.950;-122.338;2023-09-12T03:56:17;17.25;;;4.70;;
70010;SDS011;59543;37.950;-122.338;2023-09-12T03:58:45;16.33;;;4.55;;
70010;SDS011;59543;37.950;-122.338;2023-09-12T04:01:12;18.10;;;4.68;;
70010;SDS011;59543;37.950;-122.338;2023-09-12T04:03:38;16.45;;;4.38;;
70010;SDS011;59543;37.950;-122.338;2023-09-12T04:06:04;18.73;;;4.85;;
70010;SDS011;59543;37.950;-122.338;2023-09-12T04:08:31;17.98;;;4.13;;
70010;SDS011;59543;37.950;-122.338;2023-09-12T04:10:58;17.95;;;4.43;;
70010;SDS011;59543;37.950;-122.338;2023-09-12T04:13:24;14.38;;;4.28;;
70010;SDS011;59543;37.950;-122.338;2023-09-12T04:15:50;19.75;;;4.32;;
70010;SDS011;59543;37.950;-122.338;2023-09-12T04:18:16;18.08;;;4.40;;
70010;SDS011;59543;37.950;-122.338;2023-09-12T04:20:42;15.20;;;4.15;;
70010;SDS011;59543;37.950;-122.338;2023-09-12T04:23:09;16.45;;;4.00;;
70010;SDS011;59543;37.950;-122.338;2023-09-12T04:25:35;20.77;;;4.20;;
70010;SDS011;59543;37.950;-122.338;2023-09-12T04:28:01;14.95;;;4.53;;
70010;SDS011;59543;37.950;-122.338;2023-09-12T04:30:28;13.95;;;3.83;;
70010;SDS011;59543;37.950;-122.338;2023-09-12T04:32:54;16.02;;;4.95;;
70010;SDS011;59543;37.950;-122.338;2023-09-12T04:35:20;20.70;;;5.18;;
70010;SDS011;59543;37.950;-122.338;2023-09-12T04:37:47;21.92;;;5.22;;
70010;SDS011;59543;37.950;-122.338;2023-09-12T04:40:14;17.08;;;5.40;;
70010;SDS011;59543;37.950;-122.338;2023-09-12T04:42:41;18.38;;;5.80;;
70010;SDS011;59543;37.950;-122.338;2023-09-12T04:45:07;28.98;;;6.38;;
70010;SDS011;59543;37.950;-122.338;2023-09-12T04:47:33;15.60;;;4.97;;
70010;SDS011;59543;37.950;-122.338;2023-09-12T04:50:00;29.65;;;6.50;;
70010;SDS011;59543;37.950;-122.338;2023-09-12T04:52:27;21.63;;;6.15;;
70010;SDS011;59543;37.950;-122.338;2023-09-12T04:54:53;28.35;;;6.53;;
70010;SDS011;59543;37.950;-122.338;2023-09-12T04:57:19;33.17;;;7.60;;
70010;SDS011;59543;37.950;-122.338;2023-09-12T04:59:45;26.80;;;7.45;;
70010;SDS011;59543;37.950;-122.338;2023-09-12T05:02:12;30.88;;;7.47;;
70010;SDS011;59543;37.950;-122.338;2023-09-12T05:04:38;30.27;;;7.00;;
70010;SDS011;59543;37.950;-122.338;2023-09-12T05:07:04;28.33;;;6.80;;
70010;SDS011;59543;37.950;-122.338;2023-09-12T05:09:30;30.00;;;6.55;;
70010;SDS011;59543;37.950;-122.338;2023-09-12T05:11:57;26.02;;;6.30;;
70010;SDS011;59543;37.950;-122.338;2023-09-12T05:14:23;25.67;;;6.53;;
70010;SDS011;59543;37.950;-122.338;2023-09-12T05:16:49;27.65;;;6.50;;
70010;SDS011;59543;37.950;-122.338;2023-09-12T05:19:16;29.70;;;6.53;;
70010;SDS011;59543;37.950;-122.338;2023-09-12T05:21:42;26.00;;;6.57;;
70010;SDS011;59543;37.950;-122.338;2023-09-12T05:24:08;28.45;;;6.85;;
70010;SDS011;59543;37.950;-122.338;2023-09-12T05:26:34;26.75;;;7.15;;
70010;SDS011;59543;37.950;-122.338;2023-09-12T05:29:01;36.20;;;8.15;;
70010;SDS011;59543;37.950;-122.338;2023-09-12T05:31:27;33.38;;;7.32;;
70010;SDS011;59543;37.950;-122.338;2023-09-12T05:33:53;32.42;;;8.00;;
70010;SDS011;59543;37.950;-122.338;2023-09-12T05:36:19;37.63;;;7.95;;
70010;SDS011;59543;37.950;-122.338;2023-09-12T05:38:46;29.60;;;7.95;;
70010;SDS011;59543;37.950;-122.338;2023-09-12T05:41:12;35.95;;;9.10;;
70010;SDS011;59543;37.950;-122.338;2023-09-12T05:43:38;39.53;;;8.35;;
70010;SDS011;59543;37.950;-122.338;2023-09-12T05:46:04;38.53;;;8.20;;
70010;SDS011;59543;37.950;-122.338;2023-09-12T05:48:31;44.28;;;9.55;;
70010;SDS011;59543;37.950;-122.338;2023-09-12T05:50:57;43.70;;;8.82;;
70010;SDS011;59543;37.950;-122.338;2023-09-12T05:53:23;40.15;;;9.35;;
70010;SDS011;59543;37.950;-122.338;2023-09-12T05:55:49;40.35;;;8.80;;
70010;SDS011;59543;37.950;-122.338;2023-09-12T05:58:16;47.17;;;9.45;;
70010;SDS011;59543;37.950;-122.338;2023-09-12T06:00:42;43.80;;;10.20;;
70010;SDS011;59543;37.950;-122.338;2023-09-12T06:03:08;45.75;;;10.80;;
70010;SDS011;59543;37.950;-122.338;2023-09-12T06:05:34;40.55;;;10.00;;
70010;SDS011;59543;37.950;-122.338;2023-09-12T06:08:01;46.55;;;10.23;;
70010;SDS011;59543;37.950;-122.338;2023-09-12T06:10:27;38.80;;;9.55;;
70010;SDS011;59543;37.950;-122.338;2023-09-12T06:12:53;37.40;;;9.52;;
70010;SDS011;59543;37.950;-122.338;2023-09-12T06:15:20;39.95;;;9.13;;
70010;SDS011;59543;37.950;-122.338;2023-09-12T06:17:46;45.10;;;9.68;;
70010;SDS011;59543;37.950;-122.338;2023-09-12T06:20:12;47.63;;;9.38;;
70010;SDS011;59543;37.950;-122.338;2023-09-12T06:22:38;41.10;;;9.00;;
70010;SDS011;59543;37.950;-122.338;2023-09-12T06:25:05;41.50;;;9.00;;
70010;SDS011;59543;37.950;-122.338;2023-09-12T06:27:31;38.20;;;8.68;;
70010;SDS011;59543;37.950;-122.338;2023-09-12T06:29:58;43.38;;;9.90;;
70010;SDS011;59543;37.950;-122.338;2023-09-12T06:32:24;41.10;;;9.57;;
70010;SDS011;59543;37.950;-122.338;2023-09-12T06:34:50;38.72;;;9.25;;
70010;SDS011;59543;37.950;-122.338;2023-09-12T06:37:16;44.80;;;9.68;;
70010;SDS011;59543;37.950;-122.338;2023-09-12T06:39:43;47.38;;;9.73;;
70010;SDS011;59543;37.950;-122.338;2023-09-12T06:42:10;42.90;;;9.50;;
70010;SDS011;59543;37.950;-122.338;2023-09-12T06:44:36;51.97;;;9.73;;
70010;SDS011;59543;37.950;-122.338;2023-09-12T06:47:05;43.83;;;9.65;;
70010;SDS011;59543;37.950;-122.338;2023-09-12T06:49:31;51.83;;;9.27;;
70010;SDS011;59543;37.950;-122.338;2023-09-12T06:51:58;48.35;;;9.90;;
70010;SDS011;59543;37.950;-122.338;2023-09-12T06:54:24;49.08;;;10.25;;
70010;SDS011;59543;37.950;-122.338;2023-09-12T06:56:50;38.78;;;8.88;;
70010;SDS011;59543;37.950;-122.338;2023-09-12T06:59:16;45.80;;;10.27;;
70010;SDS011;59543;37.950;-122.338;2023-09-12T07:01:43;40.63;;;9.55;;
70010;SDS011;59543;37.950;-122.338;2023-09-12T07:04:10;45.67;;;9.93;;
70010;SDS011;59543;37.950;-122.338;2023-09-12T07:06:36;52.20;;;9.52;;
70010;SDS011;59543;37.950;-122.338;2023-09-12T07:09:02;38.95;;;8.73;;
70010;SDS011;59543;37.950;-122.338;2023-09-12T07:11:30;43.35;;;10.10;;
70010;SDS011;59543;37.950;-122.338;2023-09-12T07:13:56;43.63;;;10.05;;
70010;SDS011;59543;37.950;-122.338;2023-09-12T07:16:22;47.70;;;10.35;;
70010;SDS011;59543;37.950;-122.338;2023-09-12T07:18:48;45.08;;;9.38;;
70010;SDS011;59543;37.950;-122.338;2023-09-12T07:21:15;43.28;;;9.30;;
70010;SDS011;59543;37.950;-122.338;2023-09-12T07:23:42;45.97;;;9.65;;
70010;SDS011;59543;37.950;-122.338;2023-09-12T07:26:11;40.70;;;9.68;;
70010;SDS011;59543;37.950;-122.338;2023-09-12T07:28:39;57.88;;;11.10;;
70010;SDS011;59543;37.950;-122.338;2023-09-12T07:31:05;41.47;;;9.85;;
70010;SDS011;59543;37.950;-122.338;2023-09-12T07:33:32;46.50;;;9.07;;
70010;SDS011;59543;37.950;-122.338;2023-09-12T07:35:58;45.65;;;9.05;;
70010;SDS011;59543;37.950;-122.338;2023-09-12T07:38:31;58.20;;;10.77;;
70010;SDS011;59543;37.950;-122.338;2023-09-12T07:40:58;44.78;;;9.25;;
70010;SDS011;59543;37.950;-122.338;2023-09-12T07:43:25;43.78;;;9.02;;
70010;SDS011;59543;37.950;-122.338;2023-09-12T07:45:55;46.00;;;9.23;;
70010;SDS011;59543;37.950;-122.338;2023-09-12T07:48:22;37.80;;;8.27;;
70010;SDS011;59543;37.950;-122.338;2023-09-12T07:50:49;39.08;;;9.88;;
70010;SDS011;59543;37.950;-122.338;2023-09-12T07:53:16;40.55;;;9.38;;
70010;SDS011;59543;37.950;-122.338;2023-09-12T07:55:43;51.35;;;10.48;;
70010;SDS011;59543;37.950;-122.338;2023-09-12T07:58:16;43.95;;;10.13;;
70010;SDS011;59543;37.950;-122.338;2023-09-12T08:00:47;47.17;;;9.70;;
70010;SDS011;59543;37.950;-122.338;2023-09-12T08:03:13;42.47;;;9.40;;
70010;SDS011;59543;37.950;-122.338;2023-09-12T08:05:40;41.33;;;9.60;;
70010;SDS011;59543;37.950;-122.338;2023-09-12T08:08:07;42.50;;;10.10;;
70010;SDS011;59543;37.950;-122.338;2023-09-12T08:10:33;43.40;;;10.10;;
70010;SDS011;59543;37.950;-122.338;2023-09-12T08:12:59;49.28;;;9.55;;
70010;SDS011;59543;37.950;-122.338;2023-09-12T08:15:26;40.03;;;8.98;;
70010;SDS011;59543;37.950;-122.338;2023-09-12T08:17:53;36.67;;;8.40;;
70010;SDS011;59543;37.950;-122.338;2023-09-12T08:20:20;44.17;;;9.68;;
70010;SDS011;59543;37.950;-122.338;2023-09-12T08:22:46;38.90;;;9.27;;
70010;SDS011;59543;37.950;-122.338;2023-09-12T08:25:14;52.47;;;10.02;;
70010;SDS011;59543;37.950;-122.338;2023-09-12T08:27:40;49.25;;;10.95;;
70010;SDS011;59543;37.950;-122.338;2023-09-12T08:30:08;40.97;;;9.20;;
70010;SDS011;59543;37.950;-122.338;2023-09-12T08:32:35;42.00;;;9.80;;
70010;SDS011;59543;37.950;-122.338;2023-09-12T08:35:04;46.65;;;9.65;;
70010;SDS011;59543;37.950;-122.338;2023-09-12T08:37:32;50.35;;;10.57;;
70010;SDS011;59543;37.950;-122.338;2023-09-12T08:39:58;47.85;;;10.43;;
70010;SDS011;59543;37.950;-122.338;2023-09-12T08:42:25;53.90;;;11.45;;
70010;SDS011;59543;37.950;-122.338;2023-09-12T08:44:55;47.10;;;10.02;;
70010;SDS011;59543;37.950;-122.338;2023-09-12T08:47:22;45.92;;;10.80;;
70010;SDS011;59543;37.950;-122.338;2023-09-12T08:49:50;46.38;;;10.15;;
70010;SDS011;59543;37.950;-122.338;2023-09-12T08:52:16;47.78;;;10.60;;
70010;SDS011;59543;37.950;-122.338;2023-09-12T08:54:43;61.53;;;10.77;;
70010;SDS011;59543;37.950;-122.338;2023-09-12T08:57:09;47.38;;;10.50;;
70010;SDS011;59543;37.950;-122.338;2023-09-12T08:59:38;58.28;;;11.18;;
70010;SDS011;59543;37.950;-122.338;2023-09-12T09:02:07;45.15;;;10.50;;
70010;SDS011;59543;37.950;-122.338;2023-09-12T09:04:35;42.90;;;10.50;;
70010;SDS011;59543;37.950;-122.338;2023-09-12T09:07:03;43.25;;;9.80;;
70010;SDS011;59543;37.950;-122.338;2023-09-12T09:09:30;51.63;;;10.63;;
70010;SDS011;59543;37.950;-122.338;2023-09-12T09:11:57;45.80;;;10.02;;
70010;SDS011;59543;37.950;-122.338;2023-09-12T09:14:24;40.22;;;9.57;;
70010;SDS011;59543;37.950;-122.338;2023-09-12T09:16:50;40.47;;;9.93;;
70010;SDS011;59543;37.950;-122.338;2023-09-12T09:19:16;47.47;;;10.05;;
70010;SDS011;59543;37.950;-122.338;2023-09-12T09:21:45;45.92;;;9.88;;
70010;SDS011;59543;37.950;-122.338;2023-09-12T09:24:12;46.33;;;10.50;;
70010;SDS011;59543;37.950;-122.338;2023-09-12T09:26:41;50.08;;;11.32;;
70010;SDS011;59543;37.950;-122.338;2023-09-12T09:29:09;55.20;;;10.52;;
70010;SDS011;59543;37.950;-122.338;2023-09-12T09:31:40;54.08;;;11.10;;
70010;SDS011;59543;37.950;-122.338;2023-09-12T09:36:47;37.95;;;8.57;;
70010;SDS011;59543;37.950;-122.338;2023-09-12T09:39:18;35.25;;;8.32;;
70010;SDS011;59543;37.950;-122.338;2023-09-12T09:41:50;41.08;;;8.85;;
70010;SDS011;59543;37.950;-122.338;2023-09-12T09:44:17;42.05;;;9.32;;
70010;SDS011;59543;37.950;-122.338;2023-09-12T09:46:45;43.35;;;10.48;;
70010;SDS011;59543;37.950;-122.338;2023-09-12T09:49:14;46.30;;;9.23;;
70010;SDS011;59543;37.950;-122.338;2023-09-12T09:51:43;38.42;;;9.25;;
70010;SDS011;59543;37.950;-122.338;2023-09-12T09:54:10;39.65;;;8.63;;
70010;SDS011;59543;37.950;-122.338;2023-09-12T09:56:48;40.92;;;9.27;;
70010;SDS011;59543;37.950;-122.338;2023-09-12T09:59:16;44.03;;;9.23;;
70010;SDS011;59543;37.950;-122.338;2023-09-12T10:01:44;45.90;;;10.48;;
70010;SDS011;59543;37.950;-122.338;2023-09-12T10:04:11;53.58;;;11.65;;
70010;SDS011;59543;37.950;-122.338;2023-09-12T10:06:38;50.83;;;9.88;;
70010;SDS011;59543;37.950;-122.338;2023-09-12T10:09:09;47.05;;;9.13;;
70010;SDS011;59543;37.950;-122.338;2023-09-12T10:11:37;44.03;;;9.43;;
70010;SDS011;59543;37.950;-122.338;2023-09-12T10:14:05;45.25;;;9.30;;
70010;SDS011;59543;37.950;-122.338;2023-09-12T10:16:33;42.58;;;10.15;;
70010;SDS011;59543;37.950;-122.338;2023-09-12T10:21:57;43.13;;;9.43;;
70010;SDS011;59543;37.950;-122.338;2023-09-12T10:24:42;45.03;;;9.43;;
70010;SDS011;59543;37.950;-122.338;2023-09-12T10:27:09;40.05;;;9.40;;
70010;SDS011;59543;37.950;-122.338;2023-09-12T10:29:38;56.70;;;10.82;;
70010;SDS011;59543;37.950;-122.338;2023-09-12T10:32:05;51.78;;;10.88;;
70010;SDS011;59543;37.950;-122.338;2023-09-12T10:34:32;53.63;;;10.48;;
70010;SDS011;59543;37.950;-122.338;2023-09-12T10:37:00;54.50;;;11.20;;
70010;SDS011;59543;37.950;-122.338;2023-09-12T10:39:32;39.30;;;8.82;;
70010;SDS011;59543;37.950;-122.338;2023-09-12T10:42:00;40.88;;;8.95;;
70010;SDS011;59543;37.950;-122.338;2023-09-12T10:44:30;60.45;;;10.82;;
70010;SDS011;59543;37.950;-122.338;2023-09-12T10:46:57;57.65;;;11.27;;
70010;SDS011;59543;37.950;-122.338;2023-09-12T10:49:24;41.67;;;10.27;;
70010;SDS011;59543;37.950;-122.338;2023-09-12T10:51:50;47.47;;;10.35;;
70010;SDS011;59543;37.950;-122.338;2023-09-12T10:54:23;42.90;;;9.00;;
70010;SDS011;59543;37.950;-122.338;2023-09-12T10:57:07;39.30;;;8.88;;
70010;SDS011;59543;37.950;-122.338;2023-09-12T10:59:37;39.55;;;8.70;;
70010;SDS011;59543;37.950;-122.338;2023-09-12T11:02:39;44.50;;;9.07;;
70010;SDS011;59543;37.950;-122.338;2023-09-12T11:05:06;40.08;;;8.73;;
70010;SDS011;59543;37.950;-122.338;2023-09-12T11:07:57;50.55;;;9.75;;
70010;SDS011;59543;37.950;-122.338;2023-09-12T11:10:25;43.63;;;9.77;;
70010;SDS011;59543;37.950;-122.338;2023-09-12T11:12:53;37.15;;;8.15;;
70010;SDS011;59543;37.950;-122.338;2023-09-12T11:15:23;35.70;;;7.50;;
70010;SDS011;59543;37.950;-122.338;2023-09-12T11:18:00;41.92;;;9.23;;
70010;SDS011;59543;37.950;-122.338;2023-09-12T11:23:18;49.17;;;9.55;;
70010;SDS011;59543;37.950;-122.338;2023-09-12T11:25:45;41.22;;;8.48;;
70010;SDS011;59543;37.950;-122.338;2023-09-12T11:28:11;34.10;;;8.32;;
70010;SDS011;59543;37.950;-122.338;2023-09-12T11:30:37;43.40;;;8.55;;
70010;SDS011;59543;37.950;-122.338;2023-09-12T11:33:23;38.33;;;8.45;;
70010;SDS011;59543;37.950;-122.338;2023-09-12T11:35:54;34.42;;;8.10;;
70010;SDS011;59543;37.950;-122.338;2023-09-12T11:38:30;51.08;;;9.95;;
70010;SDS011;59543;37.950;-122.338;2023-09-12T11:40:57;36.22;;;8.30;;
70010;SDS011;59543;37.950;-122.338;2023-09-12T11:43:25;35.55;;;8.73;;
70010;SDS011;59543;37.950;-122.338;2023-09-12T11:45:52;44.92;;;9.02;;
70010;SDS011;59543;37.950;-122.338;2023-09-12T11:48:21;33.20;;;8.40;;
70010;SDS011;59543;37.950;-122.338;2023-09-12T11:50:52;35.65;;;8.50;;
70010;SDS011;59543;37.950;-122.338;2023-09-12T11:53:23;30.77;;;7.53;;
70010;SDS011;59543;37.950;-122.338;2023-09-12T11:55:52;28.80;;;7.05;;
70010;SDS011;59543;37.950;-122.338;2023-09-12T11:58:28;33.47;;;8.32;;
70010;SDS011;59543;37.950;-122.338;2023-09-12T12:00:55;38.53;;;8.35;;
70010;SDS011;59543;37.950;-122.338;2023-09-12T12:03:24;28.75;;;7.75;;
70010;SDS011;59543;37.950;-122.338;2023-09-12T12:05:52;43.15;;;8.25;;
70010;SDS011;59543;37.950;-122.338;2023-09-12T12:08:20;36.53;;;8.73;;
70010;SDS011;59543;37.950;-122.338;2023-09-12T12:10:50;33.42;;;7.40;;
70010;SDS011;59543;37.950;-122.338;2023-09-12T12:13:20;29.08;;;7.82;;
70010;SDS011;59543;37.950;-122.338;2023-09-12T12:15:47;33.55;;;8.05;;
70010;SDS011;59543;37.950;-122.338;2023-09-12T12:18:14;28.02;;;7.50;;
70010;SDS011;59543;37.950;-122.338;2023-09-12T12:20:41;47.15;;;8.95;;
70010;SDS011;59543;37.950;-122.338;2023-09-12T12:23:07;32.35;;;7.85;;
70010;SDS011;59543;37.950;-122.338;2023-09-12T12:25:34;33.00;;;8.10;;
70010;SDS011;59543;37.950;-122.338;2023-09-12T12:28:01;32.58;;;8.00;;
70010;SDS011;59543;37.950;-122.338;2023-09-12T12:30:32;43.42;;;9.15;;
70010;SDS011;59543;37.950;-122.338;2023-09-12T12:33:00;37.78;;;8.25;;
70010;SDS011;59543;37.950;-122.338;2023-09-12T12:35:31;41.63;;;8.77;;
70010;SDS011;59543;37.950;-122.338;2023-09-12T12:37:58;49.13;;;9.05;;
70010;SDS011;59543;37.950;-122.338;2023-09-12T12:40:24;41.60;;;8.70;;
70010;SDS011;59543;37.950;-122.338;2023-09-12T12:42:51;30.17;;;8.00;;
70010;SDS011;59543;37.950;-122.338;2023-09-12T12:45:23;42.30;;;9.05;;
70010;SDS011;59543;37.950;-122.338;2023-09-12T12:48:00;32.30;;;8.27;;
70010;SDS011;59543;37.950;-122.338;2023-09-12T12:50:27;37.22;;;8.60;;
70010;SDS011;59543;37.950;-122.338;2023-09-12T12:52:53;34.60;;;9.27;;
70010;SDS011;59543;37.950;-122.338;2023-09-12T12:55:20;40.75;;;10.05;;
70010;SDS011;59543;37.950;-122.338;2023-09-12T12:57:47;39.60;;;9.52;;
70010;SDS011;59543;37.950;-122.338;2023-09-12T13:00:15;43.17;;;9.57;;
70010;SDS011;59543;37.950;-122.338;2023-09-12T13:02:43;39.60;;;9.20;;
70010;SDS011;59543;37.950;-122.338;2023-09-12T13:07:53;47.95;;;9.95;;
70010;SDS011;59543;37.950;-122.338;2023-09-12T13:10:20;40.00;;;9.18;;
70010;SDS011;59543;37.950;-122.338;2023-09-12T13:12:47;44.22;;;10.00;;
70010;SDS011;59543;37.950;-122.338;2023-09-12T13:15:14;50.20;;;10.10;;
70010;SDS011;59543;37.950;-122.338;2023-09-12T13:17:42;50.15;;;10.88;;
70010;SDS011;59543;37.950;-122.338;2023-09-12T13:20:09;47.17;;;11.20;;
70010;SDS011;59543;37.950;-122.338;2023-09-12T13:22:36;40.50;;;9.45;;
70010;SDS011;59543;37.950;-122.338;2023-09-12T13:25:03;41.15;;;10.52;;
70010;SDS011;59543;37.950;-122.338;2023-09-12T13:27:33;41.67;;;10.55;;
70010;SDS011;59543;37.950;-122.338;2023-09-12T13:29:59;36.88;;;10.27;;
70010;SDS011;59543;37.950;-122.338;2023-09-12T13:32:26;43.88;;;10.52;;
70010;SDS011;59543;37.950;-122.338;2023-09-12T13:34:52;40.30;;;10.18;;
70010;SDS011;59543;37.950;-122.338;2023-09-12T13:37:19;43.03;;;9.90;;
70010;SDS011;59543;37.950;-122.338;2023-09-12T13:39:46;35.88;;;8.93;;
70010;SDS011;59543;37.950;-122.338;2023-09-12T13:42:17;38.85;;;9.80;;
70010;SDS011;59543;37.950;-122.338;2023-09-12T13:44:48;47.05;;;9.98;;
70010;SDS011;59543;37.950;-122.338;2023-09-12T13:47:14;43.60;;;10.93;;
70010;SDS011;59543;37.950;-122.338;2023-09-12T13:49:47;47.15;;;11.32;;
70010;SDS011;59543;37.950;-122.338;2023-09-12T13:52:14;46.38;;;10.65;;
70010;SDS011;59543;37.950;-122.338;2023-09-12T13:54:40;43.38;;;10.43;;
70010;SDS011;59543;37.950;-122.338;2023-09-12T13:57:06;47.05;;;10.35;;
70010;SDS011;59543;37.950;-122.338;2023-09-12T13:59:33;46.95;;;10.50;;
70010;SDS011;59543;37.950;-122.338;2023-09-12T14:01:59;57.03;;;11.05;;
70010;SDS011;59543;37.950;-122.338;2023-09-12T14:04:25;41.97;;;9.60;;
70010;SDS011;59543;37.950;-122.338;2023-09-12T14:06:51;44.90;;;10.32;;
70010;SDS011;59543;37.950;-122.338;2023-09-12T14:09:18;51.50;;;10.75;;
70010;SDS011;59543;37.950;-122.338;2023-09-12T14:11:44;44.17;;;10.85;;
70010;SDS011;59543;37.950;-122.338;2023-09-12T14:14:12;42.17;;;9.73;;